createdAt,value
2023-04-28T00:01:46.945Z,67.80
2023-04-28T00:04:14.483Z,67.83
2023-04-28T00:06:41.786Z,67.77
2023-04-28T00:09:12.243Z,67.76
2023-04-28T00:11:39.313Z,67.70
2023-04-28T00:14:06.426Z,67.50
2023-04-28T00:16:33.481Z,67.50
2023-04-28T00:19:00.478Z,67.88
2023-04-28T00:21:28.938Z,67.87
2023-04-28T00:23:56.093Z,67.69
2023-04-28T00:26:23.079Z,67.97
2023-04-28T00:28:50.232Z,67.97
2023-04-28T00:31:17.457Z,68.05
2023-04-28T00:33:44.869Z,67.66
2023-04-28T00:36:13.046Z,67.86
2023-04-28T00:38:40.039Z,67.87
2023-04-28T00:41:09.610Z,67.72
2023-04-28T00:43:47.384Z,67.61
2023-04-28T00:46:30.257Z,67.63
2023-04-28T00:49:00.927Z,68.16
2023-04-28T00:51:31.028Z,67.67
2023-04-28T00:53:58.096Z,68.04
2023-04-28T00:56:27.781Z,67.83
2023-04-28T00:58:54.704Z,67.57
2023-04-28T01:01:21.741Z,68.06
2023-04-28T01:03:49.551Z,68.04
2023-04-28T01:06:17.477Z,67.94
2023-04-28T01:08:50.397Z,67.66
2023-04-28T01:11:17.717Z,68.29
2023-04-28T01:13:44.694Z,67.92
2023-04-28T01:16:11.867Z,67.90
2023-04-28T01:18:43.239Z,67.71
2023-04-28T01:21:10.130Z,67.96
2023-04-28T01:23:37.169Z,68.19
2023-04-28T01:26:04.108Z,67.84
2023-04-28T01:28:31.847Z,68.01
2023-04-28T01:30:58.793Z,68.04
2023-04-28T01:33:25.765Z,68.07
2023-04-28T01:35:57.826Z,68.14
2023-04-28T01:38:24.800Z,68.11
2023-04-28T01:40:55.734Z,68.17
2023-04-28T01:43:22.669Z,68.14
2023-04-28T01:45:49.774Z,68.19
2023-04-28T01:48:17.203Z,68.09
2023-04-28T01:50:47.400Z,68.46
2023-04-28T01:53:14.720Z,68.20
2023-04-28T01:55:41.708Z,68.03
2023-04-28T01:58:11.211Z,67.99
2023-04-28T02:00:38.112Z,67.95
2023-04-28T02:03:05.494Z,68.32
2023-04-28T02:05:32.474Z,68.31
2023-04-28T02:07:59.543Z,68.06
2023-04-28T02:10:26.539Z,68.11
2023-04-28T02:12:53.423Z,68.39
2023-04-28T02:15:22.577Z,68.03
2023-04-28T02:17:49.949Z,67.98
2023-04-28T02:20:17.026Z,67.65
2023-04-28T02:22:44.000Z,67.20
2023-04-28T02:25:11.045Z,67.17
2023-04-28T02:27:40.859Z,67.03
2023-04-28T02:30:09.011Z,67.35
2023-04-28T02:32:35.938Z,67.38
2023-04-28T02:35:02.896Z,67.20
2023-04-28T02:37:29.855Z,67.25
2023-04-28T02:39:57.057Z,67.88
2023-04-28T02:42:24.008Z,68.28
2023-04-28T02:44:51.272Z,68.07
2023-04-28T02:47:18.369Z,68.12
2023-04-28T02:49:45.345Z,68.09
2023-04-28T02:52:12.744Z,68.10
2023-04-28T02:54:39.827Z,68.02
2023-04-28T02:57:09.686Z,67.47
2023-04-28T02:59:36.762Z,67.17
2023-04-28T03:02:05.100Z,67.28
2023-04-28T03:04:32.679Z,67.20
2023-04-28T03:06:59.804Z,67.14
2023-04-28T03:09:26.823Z,67.11
2023-04-28T03:11:53.853Z,67.67
2023-04-28T03:14:21.002Z,67.10
2023-04-28T03:16:51.302Z,66.98
2023-04-28T03:19:18.339Z,67.24
2023-04-28T03:21:45.487Z,67.21
2023-04-28T03:24:12.487Z,67.01
2023-04-28T03:26:39.482Z,67.04
2023-04-28T03:29:07.148Z,66.95
2023-04-28T03:31:34.432Z,67.13
2023-04-28T03:34:01.442Z,67.24
2023-04-28T03:36:29.113Z,67.06
2023-04-28T03:38:56.158Z,67.58
2023-04-28T03:41:23.137Z,67.16
2023-04-28T03:43:50.972Z,67.42
2023-04-28T03:46:18.039Z,67.56
2023-04-28T03:48:46.485Z,67.85
2023-04-28T03:51:13.538Z,67.67
2023-04-28T03:53:40.461Z,67.54
2023-04-28T03:56:07.715Z,67.35
2023-04-28T03:58:35.177Z,67.23
2023-04-28T04:01:02.249Z,66.79
2023-04-28T04:03:31.376Z,66.69
2023-04-28T04:05:58.932Z,66.23
2023-04-28T04:08:25.958Z,66.30
2023-04-28T04:10:54.981Z,66.77
2023-04-28T04:13:22.875Z,66.59
2023-04-28T04:15:52.166Z,66.42
2023-04-28T04:18:19.319Z,66.48
2023-04-28T04:20:46.270Z,66.35
2023-04-28T04:23:13.290Z,65.76
2023-04-28T04:25:40.317Z,66.22
2023-04-28T04:28:07.310Z,65.92
2023-04-28T04:30:34.526Z,65.38
2023-04-28T04:33:01.905Z,65.04
2023-04-28T04:35:29.055Z,65.07
2023-04-28T04:37:56.076Z,65.01
2023-04-28T04:40:23.396Z,65.36
2023-04-28T04:42:50.590Z,65.13
2023-04-28T04:45:18.013Z,65.50
2023-04-28T04:47:45.241Z,64.74
2023-04-28T04:50:12.531Z,64.32
2023-04-28T04:52:39.662Z,64.09
2023-04-28T04:55:07.432Z,63.97
2023-04-28T04:57:34.396Z,63.67
2023-04-28T05:00:01.375Z,63.04
2023-04-28T05:02:28.394Z,62.77
2023-04-28T05:05:04.808Z,62.57
2023-04-28T05:07:39.819Z,62.95
2023-04-28T05:10:09.812Z,62.13
2023-04-28T05:12:36.792Z,61.75
2023-04-28T05:15:04.424Z,61.26
2023-04-28T05:17:34.302Z,60.93
2023-04-28T05:20:01.222Z,61.15
2023-04-28T05:22:28.515Z,60.93
2023-04-28T05:24:55.834Z,60.65
2023-04-28T05:27:23.347Z,60.37
2023-04-28T05:29:50.272Z,60.21
2023-04-28T05:32:17.369Z,59.98
2023-04-28T05:34:44.359Z,60.01
2023-04-28T05:37:11.804Z,59.45
2023-04-28T05:39:38.958Z,59.24
2023-04-28T05:42:06.018Z,58.94
2023-04-28T05:44:33.144Z,58.71
2023-04-28T05:47:00.360Z,58.65
2023-04-28T05:49:27.381Z,58.88
2023-04-28T05:51:54.296Z,58.67
2023-04-28T05:54:21.172Z,58.00
2023-04-28T05:56:50.838Z,57.96
2023-04-28T05:59:18.671Z,57.67
2023-04-28T06:01:46.040Z,57.31
2023-04-28T06:04:13.425Z,57.50
2023-04-28T06:06:40.858Z,56.94
2023-04-28T06:09:08.037Z,57.36
2023-04-28T06:11:35.140Z,56.88
2023-04-28T06:14:06.702Z,56.58
2023-04-28T06:16:33.845Z,56.35
2023-04-28T06:19:01.310Z,56.19
2023-04-28T06:21:29.482Z,56.36
2023-04-28T06:23:56.470Z,56.27
2023-04-28T06:26:27.225Z,56.31
2023-04-28T06:28:54.685Z,55.90
2023-04-28T06:31:21.742Z,55.27
2023-04-28T06:33:48.664Z,55.10
2023-04-28T06:36:18.200Z,55.18
2023-04-28T06:38:46.056Z,54.74
2023-04-28T06:41:13.132Z,54.24
2023-04-28T06:43:40.104Z,54.05
2023-04-28T06:46:11.055Z,53.25
2023-04-28T06:48:38.562Z,53.47
2023-04-28T06:51:05.875Z,53.77
2023-04-28T06:53:32.925Z,53.87
2023-04-28T06:56:00.034Z,53.52
2023-04-28T06:58:27.109Z,53.24
2023-04-28T07:00:56.952Z,52.87
2023-04-28T07:03:27.783Z,52.56
2023-04-28T07:05:57.424Z,52.37
2023-04-28T07:08:24.569Z,52.60
2023-04-28T07:10:51.637Z,52.46
2023-04-28T07:13:21.501Z,52.20
2023-04-28T07:15:48.546Z,51.89
2023-04-28T07:18:15.766Z,51.43
2023-04-28T07:20:42.748Z,51.44
2023-04-28T07:23:12.725Z,51.16
2023-04-28T07:25:41.146Z,51.56
2023-04-28T07:28:08.523Z,51.35
2023-04-28T07:30:38.578Z,51.71
2023-04-28T07:33:05.619Z,50.92
2023-04-28T07:35:33.778Z,50.95
2023-04-28T07:38:00.856Z,50.70
2023-04-28T07:40:27.834Z,50.90
2023-04-28T07:42:54.852Z,50.77
2023-04-28T07:45:21.777Z,50.99
2023-04-28T07:47:48.929Z,50.76
2023-04-28T07:50:16.325Z,50.36
2023-04-28T07:52:43.856Z,50.46
2023-04-28T07:55:15.551Z,50.21
2023-04-28T07:57:42.721Z,50.41
2023-04-28T08:00:10.053Z,50.71
2023-04-28T08:02:37.212Z,50.80
2023-04-28T08:05:04.550Z,51.08
2023-04-28T08:07:32.382Z,51.06
2023-04-28T08:09:59.401Z,50.40
2023-04-28T08:12:28.872Z,50.21
2023-04-28T08:14:56.663Z,50.31
2023-04-28T08:17:26.406Z,49.99
2023-04-28T08:19:53.366Z,49.91
2023-04-28T08:22:20.304Z,49.57
2023-04-28T08:24:47.300Z,49.26
2023-04-28T08:27:17.400Z,48.86
2023-04-28T08:29:44.535Z,48.88
2023-04-28T08:32:13.833Z,49.17
2023-04-28T08:34:40.778Z,50.19
2023-04-28T08:37:07.791Z,49.04
2023-04-28T08:39:35.555Z,48.36
2023-04-28T08:42:05.699Z,47.93
2023-04-28T08:44:40.090Z,47.54
2023-04-28T08:47:13.934Z,47.29
2023-04-28T08:49:44.498Z,47.14
2023-04-28T08:52:17.685Z,47.46
2023-04-28T08:54:46.442Z,47.90
2023-04-28T08:57:13.912Z,48.05
2023-04-28T08:59:44.156Z,47.74
2023-04-28T09:02:12.140Z,47.66
2023-04-28T09:04:41.925Z,47.32
2023-04-28T09:07:13.230Z,47.34
2023-04-28T09:09:44.842Z,47.37
2023-04-28T09:12:11.813Z,47.51
2023-04-28T09:14:41.955Z,47.58
2023-04-28T09:17:14.464Z,47.70
2023-04-28T09:19:43.588Z,47.76
2023-04-28T09:22:24.107Z,47.68
2023-04-28T09:24:53.593Z,47.75
2023-04-28T09:27:28.210Z,47.87
2023-04-28T09:29:57.804Z,47.60
2023-04-28T09:32:27.984Z,47.61
2023-04-28T09:34:58.255Z,47.30
2023-04-28T09:37:32.199Z,47.57
2023-04-28T09:40:09.122Z,47.59
2023-04-28T09:42:37.532Z,48.04
2023-04-28T09:45:06.966Z,48.33
2023-04-28T09:47:36.385Z,48.12
2023-04-28T09:50:12.552Z,47.74
2023-04-28T09:52:59.423Z,47.87
2023-04-28T09:55:28.448Z,47.88
2023-04-28T09:57:55.845Z,48.78
2023-04-28T10:00:23.629Z,49.11
2023-04-28T10:02:52.044Z,48.80
2023-04-28T10:05:20.374Z,48.58
2023-04-28T10:07:47.474Z,48.39
2023-04-28T10:10:15.132Z,47.61
2023-04-28T10:12:46.103Z,47.54
2023-04-28T10:15:16.691Z,47.94
2023-04-28T10:17:44.162Z,48.22
2023-04-28T10:20:11.784Z,48.07
2023-04-28T10:23:03.508Z,47.96
2023-04-28T10:25:34.388Z,48.39
2023-04-28T10:28:05.057Z,48.41
2023-04-28T10:30:32.016Z,48.97
2023-04-28T10:33:14.739Z,48.76
2023-04-28T10:35:48.610Z,49.30
2023-04-28T10:38:17.143Z,48.89
2023-04-28T10:40:49.263Z,49.66
2023-04-28T10:43:28.880Z,49.51
2023-04-28T10:46:02.471Z,50.28
2023-04-28T10:48:29.702Z,50.42
2023-04-28T10:51:05.680Z,50.58
2023-04-28T10:53:52.877Z,50.43
2023-04-28T10:56:25.826Z,50.51
2023-04-28T10:58:57.430Z,50.93
2023-04-28T11:01:29.884Z,50.85
2023-04-28T11:04:01.128Z,50.98
2023-04-28T11:06:42.757Z,51.12
2023-04-28T11:09:15.831Z,51.17
2023-04-28T11:12:00.838Z,51.40
2023-04-28T11:14:33.959Z,51.58
2023-04-28T11:17:06.043Z,51.23
2023-04-28T11:19:46.718Z,50.96
2023-04-28T11:22:18.870Z,50.82
2023-04-28T11:25:04.095Z,50.98
2023-04-28T11:27:34.725Z,51.16
2023-04-28T11:30:02.401Z,50.98
2023-04-28T11:32:36.859Z,50.94
2023-04-28T11:35:09.976Z,51.14
2023-04-28T11:37:37.051Z,51.12
2023-04-28T11:40:13.975Z,50.88
2023-04-28T11:42:50.071Z,51.12
2023-04-28T11:45:17.334Z,51.42
2023-04-28T11:47:47.258Z,51.87
2023-04-28T11:50:15.900Z,51.45
2023-04-28T11:53:09.149Z,52.04
2023-04-28T11:55:36.985Z,52.63
2023-04-28T11:58:25.461Z,52.35
2023-04-28T12:01:12.666Z,51.96
2023-04-28T12:03:46.650Z,51.97
2023-04-28T12:06:19.862Z,52.16
2023-04-28T12:08:46.961Z,52.02
2023-04-28T12:11:16.226Z,52.02
2023-04-28T12:14:02.695Z,51.27
2023-04-28T12:16:43.629Z,51.13
2023-04-28T12:19:11.909Z,51.15
2023-04-28T12:21:40.223Z,51.17
2023-04-28T12:24:27.473Z,50.51
2023-04-28T12:26:54.704Z,50.42
2023-04-28T12:29:41.559Z,51.07
2023-04-28T12:32:13.493Z,50.88
2023-04-28T12:34:42.401Z,50.34
2023-04-28T12:37:09.782Z,50.39
2023-04-28T12:39:39.769Z,50.89
2023-04-28T12:42:07.428Z,50.79
2023-04-28T12:44:38.098Z,50.84
2023-04-28T12:47:09.650Z,50.54
2023-04-28T12:49:39.382Z,50.59
2023-04-28T12:52:07.127Z,50.30
2023-04-28T12:54:37.214Z,50.36
2023-04-28T12:57:05.695Z,50.46
2023-04-28T12:59:32.880Z,50.50
2023-04-28T13:01:59.923Z,50.66
2023-04-28T13:04:27.540Z,50.87
2023-04-28T13:06:58.532Z,50.92
2023-04-28T13:09:26.418Z,50.51
2023-04-28T13:11:56.197Z,50.13
2023-04-28T13:14:24.293Z,50.35
2023-04-28T13:16:54.830Z,50.44
2023-04-28T13:19:24.978Z,50.58
2023-04-28T13:21:52.503Z,50.58
2023-04-28T13:24:20.420Z,50.48
2023-04-28T13:26:47.531Z,50.50
2023-04-28T13:29:18.333Z,50.99
2023-04-28T13:31:45.381Z,50.71
2023-04-28T13:34:16.463Z,50.78
2023-04-28T13:36:45.226Z,51.47
2023-04-28T13:39:14.709Z,51.67
2023-04-28T13:41:42.836Z,51.82
2023-04-28T13:44:09.860Z,51.89
2023-04-28T13:46:36.903Z,51.90
2023-04-28T13:49:08.004Z,51.87
2023-04-28T13:51:35.436Z,52.05
2023-04-28T13:54:08.422Z,51.59
2023-04-28T13:56:36.758Z,51.49
2023-04-28T13:59:04.100Z,51.17
2023-04-28T14:01:33.650Z,50.94
2023-04-28T14:04:01.295Z,50.91
2023-04-28T14:06:28.977Z,50.60
2023-04-28T14:08:56.098Z,50.09
2023-04-28T14:11:23.186Z,49.44
2023-04-28T14:13:50.163Z,49.29
2023-04-28T14:16:17.289Z,49.40
2023-04-28T14:18:46.991Z,49.45
2023-04-28T14:21:13.931Z,49.24
2023-04-28T14:23:43.366Z,49.20
2023-04-28T14:26:10.398Z,48.45
2023-04-28T14:28:38.008Z,48.04
2023-04-28T14:31:07.493Z,48.46
2023-04-28T14:33:36.975Z,47.98
2023-04-28T14:36:04.205Z,47.40
2023-04-28T14:38:31.360Z,47.69
2023-04-28T14:40:58.549Z,48.09
2023-04-28T14:43:28.732Z,48.07
2023-04-28T14:45:58.319Z,48.09
2023-04-28T14:48:25.339Z,48.35
2023-04-28T14:50:53.676Z,48.47
2023-04-28T14:53:20.766Z,48.57
2023-04-28T14:55:47.720Z,47.84
2023-04-28T14:58:15.426Z,47.58
2023-04-28T15:00:45.264Z,47.96
2023-04-28T15:03:12.608Z,48.57
2023-04-28T15:05:39.642Z,48.79
2023-04-28T15:08:07.128Z,49.34
2023-04-28T15:10:39.186Z,49.24
2023-04-28T15:13:09.419Z,49.30
2023-04-28T15:15:36.793Z,49.72
2023-04-28T15:18:04.520Z,50.07
2023-04-28T15:20:37.387Z,50.58
2023-04-28T15:23:04.622Z,51.12
2023-04-28T15:25:31.628Z,51.42
2023-04-28T15:27:58.684Z,51.63
2023-04-28T15:30:25.835Z,52.38
2023-04-28T15:32:53.192Z,52.45
2023-04-28T15:35:20.440Z,52.60
2023-04-28T15:37:47.873Z,53.92
2023-04-28T15:40:16.951Z,57.40
2023-04-28T15:42:49.427Z,61.92
2023-04-28T15:45:18.574Z,63.07
2023-04-28T15:47:49.493Z,63.34
2023-04-28T15:50:19.198Z,64.06
2023-04-28T15:52:46.903Z,63.84
2023-04-28T15:55:15.379Z,64.91
2023-04-28T15:57:46.721Z,66.20
2023-04-28T16:00:15.853Z,67.08
2023-04-28T16:02:44.130Z,67.44
2023-04-28T16:05:14.717Z,67.49
2023-04-28T16:07:45.885Z,68.25
2023-04-28T16:10:15.282Z,67.77
2023-04-28T16:12:43.250Z,67.06
2023-04-28T16:15:13.024Z,66.70
2023-04-28T16:17:41.320Z,66.92
2023-04-28T16:20:10.017Z,67.12
2023-04-28T16:22:41.107Z,67.22
2023-04-28T16:25:16.502Z,66.92
2023-04-28T16:27:43.724Z,67.36
2023-04-28T16:30:11.265Z,67.80
2023-04-28T16:32:38.796Z,68.46
2023-04-28T16:35:06.655Z,69.02
2023-04-28T16:37:33.858Z,69.72
2023-04-28T16:40:01.891Z,70.06
2023-04-28T16:42:29.036Z,70.72
2023-04-28T16:44:56.174Z,70.74
2023-04-28T16:47:23.166Z,70.46
2023-04-28T16:49:50.241Z,70.61
2023-04-28T16:52:17.398Z,71.40
2023-04-28T16:54:47.057Z,71.00
2023-04-28T16:57:14.062Z,70.89
2023-04-28T16:59:44.100Z,71.07
2023-04-28T17:02:11.064Z,71.17
2023-04-28T17:04:38.652Z,71.35
2023-04-28T17:07:06.120Z,71.31
2023-04-28T17:09:33.545Z,71.19
2023-04-28T17:12:01.328Z,71.53
2023-04-28T17:14:28.396Z,71.98
2023-04-28T17:16:56.098Z,71.63
2023-04-28T17:19:23.350Z,72.02
2023-04-28T17:21:52.974Z,72.22
2023-04-28T17:24:19.980Z,72.17
2023-04-28T17:26:47.265Z,72.48
2023-04-28T17:29:14.346Z,72.32
2023-04-28T17:31:42.830Z,72.64
2023-04-28T17:34:09.891Z,72.87
2023-04-28T17:36:36.793Z,72.98
2023-04-28T17:39:07.006Z,72.91
2023-04-28T17:41:34.135Z,73.53
2023-04-28T17:44:01.718Z,73.70
2023-04-28T17:46:32.722Z,73.76
2023-04-28T17:49:00.520Z,74.13
2023-04-28T17:51:30.525Z,74.41
2023-04-28T17:53:57.430Z,74.94
2023-04-28T17:56:25.284Z,75.26
2023-04-28T17:58:55.404Z,75.28
2023-04-28T18:01:24.826Z,75.08
2023-04-28T18:03:52.119Z,75.49
2023-04-28T18:06:22.632Z,75.82
2023-04-28T18:08:51.561Z,75.72
2023-04-28T18:11:18.472Z,75.84
2023-04-28T18:13:45.414Z,76.12
2023-04-28T18:16:15.181Z,76.50
2023-04-28T18:18:45.330Z,76.78
2023-04-28T18:21:15.205Z,77.24
2023-04-28T18:23:42.645Z,77.69
2023-04-28T18:26:09.574Z,78.16
2023-04-28T18:28:36.668Z,78.25
2023-04-28T18:31:07.286Z,78.47
2023-04-28T18:33:34.202Z,78.22
2023-04-28T18:36:01.507Z,78.80
2023-04-28T18:38:28.773Z,78.87
2023-04-28T18:40:58.308Z,79.04
2023-04-28T18:43:26.044Z,79.11
2023-04-28T18:45:53.042Z,78.48
2023-04-28T18:48:21.764Z,78.94
2023-04-28T18:50:48.786Z,78.82
2023-04-28T18:53:15.874Z,78.10
2023-04-28T18:55:42.860Z,78.56
2023-04-28T18:58:09.834Z,78.76
2023-04-28T19:00:37.326Z,79.47
2023-04-28T19:03:04.829Z,79.43
2023-04-28T19:05:32.444Z,79.26
2023-04-28T19:07:59.438Z,79.11
2023-04-28T19:10:26.436Z,79.13
2023-04-28T19:12:53.405Z,79.27
2023-04-28T19:15:23.018Z,79.32
2023-04-28T19:17:50.408Z,79.13
2023-04-28T19:20:18.108Z,79.11
2023-04-28T19:22:46.695Z,79.28
2023-04-28T19:25:13.718Z,79.23
2023-04-28T19:27:46.010Z,79.57
2023-04-28T19:30:14.938Z,79.96
2023-04-28T19:32:42.605Z,80.16
2023-04-28T19:35:10.045Z,79.89
2023-04-28T19:37:37.078Z,79.73
2023-04-28T19:40:07.582Z,79.64
2023-04-28T19:42:37.776Z,80.42
2023-04-28T19:45:09.585Z,80.29
2023-04-28T19:47:39.652Z,79.89
2023-04-28T19:50:08.664Z,80.12
2023-04-28T19:52:35.733Z,79.82
2023-04-28T19:55:04.289Z,80.13
2023-04-28T19:57:34.697Z,80.05
2023-04-28T20:00:04.689Z,80.10
2023-04-28T20:02:33.330Z,80.15
2023-04-28T20:05:01.129Z,80.69
2023-04-28T20:07:28.121Z,80.51
2023-04-28T20:09:56.425Z,80.57
2023-04-28T20:12:23.650Z,80.41
2023-04-28T20:14:51.417Z,80.75
2023-04-28T20:17:18.657Z,80.78
2023-04-28T20:19:45.641Z,81.03
2023-04-28T20:22:12.568Z,81.22
2023-04-28T20:24:40.359Z,81.30
2023-04-28T20:27:07.398Z,81.27
2023-04-28T20:29:37.585Z,80.95
2023-04-28T20:32:05.216Z,81.33
2023-04-28T20:34:32.435Z,80.98
2023-04-28T20:36:59.892Z,80.78
2023-04-28T20:39:26.841Z,80.88
2023-04-28T20:41:53.843Z,80.62
2023-04-28T20:44:20.827Z,80.60
2023-04-28T20:46:47.878Z,80.83
2023-04-28T20:49:15.361Z,80.73
2023-04-28T20:51:45.289Z,80.82
2023-04-28T20:54:13.019Z,81.00
2023-04-28T20:56:42.130Z,80.81
2023-04-28T20:59:09.216Z,80.74
2023-04-28T21:01:36.207Z,80.70
2023-04-28T21:04:03.359Z,80.34
2023-04-28T21:06:30.712Z,80.30
2023-04-28T21:08:57.666Z,80.53
2023-04-28T21:11:24.778Z,80.44
2023-04-28T21:13:51.702Z,80.30
2023-04-28T21:16:21.678Z,80.21
2023-04-28T21:18:49.817Z,80.47
2023-04-28T21:21:17.219Z,80.30
2023-04-28T21:23:44.502Z,80.33
2023-04-28T21:26:11.600Z,80.29
2023-04-28T21:28:41.874Z,80.41
2023-04-28T21:31:08.915Z,80.55
2023-04-28T21:33:36.261Z,80.42
2023-04-28T21:36:10.359Z,80.07
2023-04-28T21:38:38.109Z,80.39
2023-04-28T21:41:07.633Z,80.38
2023-04-28T21:43:34.892Z,80.18
2023-04-28T21:46:08.088Z,80.61
2023-04-28T21:48:35.708Z,80.59
2023-04-28T21:51:02.856Z,80.65
2023-04-28T21:53:29.868Z,80.80
2023-04-28T21:55:56.976Z,80.45
2023-04-28T21:58:24.107Z,80.66
2023-04-28T22:00:51.435Z,81.18
2023-04-28T22:03:19.000Z,81.29
2023-04-28T22:05:46.354Z,81.04
2023-04-28T22:08:14.110Z,81.03
2023-04-28T22:10:41.483Z,80.56
2023-04-28T22:13:09.272Z,80.48
2023-04-28T22:15:36.266Z,80.85
2023-04-28T22:18:03.460Z,81.20
2023-04-28T22:20:30.435Z,81.07
2023-04-28T22:22:57.892Z,81.06
2023-04-28T22:25:25.154Z,80.87
2023-04-28T22:27:52.317Z,80.73
2023-04-28T22:30:19.695Z,80.54
2023-04-28T22:32:47.683Z,80.68
2023-04-28T22:35:16.841Z,80.75
2023-04-28T22:37:44.433Z,80.91
2023-04-28T22:40:11.922Z,80.81
2023-04-28T22:42:41.444Z,80.72
2023-04-28T22:45:10.490Z,80.35
2023-04-28T22:47:41.153Z,80.17
2023-04-28T22:50:09.623Z,80.10
2023-04-28T22:52:37.039Z,80.11
2023-04-28T22:55:04.869Z,80.28
2023-04-28T22:57:31.877Z,79.85
2023-04-28T22:59:58.866Z,79.86
2023-04-28T23:02:25.950Z,80.05
2023-04-28T23:04:53.306Z,80.03
2023-04-28T23:07:20.836Z,79.98
2023-04-28T23:09:47.916Z,79.84
2023-04-28T23:12:15.365Z,80.04
2023-04-28T23:14:42.331Z,80.05
2023-04-28T23:17:09.287Z,79.96
2023-04-28T23:19:39.387Z,80.20
2023-04-28T23:22:07.974Z,80.52
2023-04-28T23:24:37.085Z,80.43
2023-04-28T23:27:04.843Z,80.21
2023-04-28T23:29:32.496Z,80.23
2023-04-28T23:31:59.806Z,80.31
2023-04-28T23:34:27.116Z,80.37
2023-04-28T23:36:54.407Z,80.38
2023-04-28T23:39:21.374Z,80.35
2023-04-28T23:41:48.347Z,80.16
2023-04-28T23:44:15.378Z,80.34
2023-04-28T23:46:42.347Z,80.56
2023-04-28T23:49:09.543Z,80.52
2023-04-28T23:51:36.559Z,80.31
2023-04-28T23:54:03.876Z,80.39
2023-04-28T23:56:31.749Z,80.14
2023-04-28T23:58:58.727Z,80.11
